Time;durP1;ratioP1;P1;durP2;ratioP2;P2;SDS_P1;SDS_P2;PMS_P1;PMS_P2;Temp;Humidity;BMP_temperature;BMP_pressure;BME280_temperature;BME280_humidity;BME280_pressure;Samples;Min_cycle;Max_cycle;Signal;HPM_P1;HPM_P2
2022/03/17 19:55:58;;;;;;;27.57;5.57;;;4.20;99.90;;;;;;5634257;23;20514;-42
2022/03/17 19:58:24;;;;;;;23.57;5.20;;;4.10;99.90;;;;;;4914509;29;20436;-43
2022/03/17 20:00:50;;;;;;;25.03;4.27;;;4.00;1.00;;;;;;4914796;29;20912;-42
2022/03/17 20:03:16;;;;;;;12.13;4.47;;;4.00;1.00;;;;;;4915205;29;20530;-43
2022/03/17 20:05:41;;;;;;;16.70;4.80;;;4.00;1.00;;;;;;4919722;29;20234;-43
2022/03/17 20:08:07;;;;;;;22.77;5.03;;;4.00;1.00;;;;;;4914494;29;20517;-42
2022/03/17 20:16:26;;;;;;;24.40;4.40;;;3.90;1.00;;;;;;4880688;29;21013;-42
2022/03/17 20:18:53;;;;;;;15.00;4.00;;;3.90;1.00;;;;;;4911953;29;20454;-43
2022/03/17 20:21:21;;;;;;;16.30;4.67;;;3.90;1.00;;;;;;4912328;29;20542;-42
2022/03/17 20:23:47;;;;;;;17.47;4.40;;;3.80;1.00;;;;;;4914742;29;20446;-48
2022/03/17 20:26:14;;;;;;;28.37;5.50;;;3.80;1.00;;;;;;4914627;29;20447;-49
2022/03/17 20:28:42;;;;;;;22.77;5.30;;;3.80;1.00;;;;;;4915158;29;20479;-48
2022/03/17 20:31:12;;;;;;;18.83;4.50;;;3.70;76.80;;;;;;4913518;29;20450;-48
2022/03/17 20:33:38;;;;;;;23.97;6.70;;;3.70;56.10;;;;;;4912977;29;20431;-47
2022/03/17 20:36:04;;;;;;;20.53;5.80;;;3.70;99.90;;;;;;4914183;29;20458;-48
2022/03/17 20:38:30;;;;;;;29.77;4.80;;;3.70;99.90;;;;;;4927247;29;20449;-48
2022/03/17 20:40:59;;;;;;;34.57;5.40;;;3.70;99.90;;;;;;4917113;29;20495;-48
2022/03/17 20:43:26;;;;;;;27.77;5.10;;;3.60;1.00;;;;;;4914341;29;20207;-48
2022/03/17 20:45:52;;;;;;;25.10;5.17;;;3.70;99.90;;;;;;4912477;29;20932;-52
2022/03/17 20:48:19;;;;;;;27.50;5.45;;;3.70;1.00;;;;;;4913508;29;20813;-48
2022/03/17 20:50:44;;;;;;;29.13;5.70;;;3.60;1.00;;;;;;4913413;29;20183;-48
2022/03/17 20:53:10;;;;;;;24.50;4.80;;;3.70;1.00;;;;;;4913721;29;20435;-48
2022/03/17 20:55:39;;;;;;;29.90;4.83;;;3.70;99.90;;;;;;4911634;29;20195;-48
2022/03/17 20:58:05;;;;;;;22.07;4.67;;;3.70;1.00;;;;;;4895248;29;20443;-48
2022/03/17 21:00:32;;;;;;;21.13;5.00;;;3.70;99.90;;;;;;4895316;29;20444;-48
2022/03/17 21:02:58;;;;;;;24.63;4.80;;;3.60;99.90;;;;;;4895289;29;20531;-48
2022/03/17 21:05:23;;;;;;;24.87;4.90;;;3.60;99.90;;;;;;4895414;29;20432;-48
2022/03/17 21:07:51;;;;;;;32.33;6.50;;;3.60;94.20;;;;;;4895240;29;20827;-47
2022/03/17 21:10:17;;;;;;;29.03;6.93;;;3.50;1.00;;;;;;4894955;29;20658;-47
2022/03/17 21:12:42;;;;;;;19.17;5.50;;;3.50;98.20;;;;;;4895306;29;20434;-46
2022/03/17 21:15:09;;;;;;;18.73;4.67;;;3.50;99.90;;;;;;4894875;29;20462;-46
2022/03/17 21:17:35;;;;;;;23.97;4.80;;;3.40;99.90;;;;;;4894760;29;20227;-48
2022/03/17 21:20:02;;;;;;;23.43;6.03;;;3.40;1.00;;;;;;4893063;29;20444;-47
2022/03/17 21:22:28;;;;;;;42.73;7.53;;;3.40;1.00;;;;;;4897517;29;20423;-47
2022/03/17 21:24:54;;;;;;;27.97;4.70;;;3.40;1.00;;;;;;4896463;29;20456;-46
2022/03/17 21:27:20;;;;;;;29.83;4.47;;;3.40;1.20;;;;;;4895533;29;20439;-47
2022/03/17 21:29:46;;;;;;;30.83;5.70;;;3.50;99.90;;;;;;4896164;29;20251;-47
2022/03/17 21:32:12;;;;;;;28.97;6.23;;;3.50;99.90;;;;;;4890205;29;20484;-46
2022/03/17 21:34:38;;;;;;;27.87;4.17;;;3.50;99.90;;;;;;4890144;29;20863;-48
2022/03/17 21:37:04;;;;;;;24.07;4.93;;;3.40;99.90;;;;;;4894468;29;20223;-46
2022/03/17 21:39:29;;;;;;;23.70;5.07;;;3.40;99.90;;;;;;4897223;29;20187;-47
2022/03/17 21:41:55;;;;;;;16.30;4.77;;;3.40;99.90;;;;;;4888092;29;20195;-47
2022/03/17 21:44:22;;;;;;;23.53;5.70;;;3.40;1.00;;;;;;4893828;29;20200;-47
2022/03/17 21:46:51;;;;;;;24.77;4.33;;;3.40;1.00;;;;;;4893490;29;20501;-47
2022/03/17 21:49:18;;;;;;;23.07;5.00;;;3.40;1.00;;;;;;4891054;29;20474;-47
2022/03/17 21:51:43;;;;;;;46.00;6.97;;;3.40;1.00;;;;;;4886910;29;20420;-56
2022/03/17 21:54:09;;;;;;;23.90;6.93;;;3.30;26.70;;;;;;4894163;29;20495;-46
2022/03/17 21:56:34;;;;;;;32.20;7.43;;;3.40;99.90;;;;;;4903930;29;20317;-47
2022/03/17 21:59:00;;;;;;;33.53;7.47;;;3.40;1.00;;;;;;4913189;29;20203;-46
2022/03/17 22:01:25;;;;;;;27.90;7.33;;;3.40;99.90;;;;;;4910409;29;20450;-47
2022/03/17 22:03:51;;;;;;;36.57;7.53;;;3.30;1.00;;;;;;4908948;29;20206;-48
2022/03/17 22:06:17;;;;;;;23.20;7.10;;;3.30;1.00;;;;;;4891218;29;20781;-48
2022/03/17 22:08:43;;;;;;;26.97;6.87;;;3.20;1.00;;;;;;4912681;29;20207;-47
2022/03/17 22:11:08;;;;;;;31.93;6.30;;;3.20;1.00;;;;;;4906642;29;20802;-47
2022/03/17 22:13:34;;;;;;;34.40;7.80;;;3.10;99.90;;;;;;4910078;29;20438;-47
2022/03/17 22:16:00;;;;;;;43.30;7.67;;;3.10;22.00;;;;;;4911992;29;20191;-47
2022/03/17 22:18:25;;;;;;;50.13;8.60;;;3.20;18.30;;;;;;4911631;29;20228;-47
2022/03/17 22:20:51;;;;;;;34.43;7.20;;;3.20;99.90;;;;;;4906300;29;20203;-46
2022/03/17 22:23:17;;;;;;;20.57;6.57;;;3.20;1.00;;;;;;4910094;29;20661;-47
2022/03/17 22:25:44;;;;;;;27.53;7.77;;;3.20;1.00;;;;;;4912343;29;20198;-47
2022/03/17 22:28:09;;;;;;;32.00;7.77;;;3.20;1.00;;;;;;4912121;29;20866;-47
2022/03/17 22:30:35;;;;;;;28.47;7.23;;;3.10;99.90;;;;;;4907322;29;20435;-48
2022/03/17 22:33:00;;;;;;;29.90;8.07;;;3.00;60.90;;;;;;4912797;29;20203;-46
2022/03/17 22:35:27;;;;;;;31.83;8.20;;;3.00;1.00;;;;;;4911553;29;20191;-50
2022/03/17 22:37:53;;;;;;;36.10;8.10;;;2.90;44.40;;;;;;4914608;29;20278;-47
2022/03/17 22:43:03;;;;;;;31.27;7.20;;;2.80;99.90;;;;;;4918958;29;20593;-47
2022/03/17 22:45:28;;;;;;;22.67;7.00;;;2.80;99.90;;;;;;4908079;29;20482;-50
2022/03/17 22:47:54;;;;;;;22.03;7.20;;;2.70;99.90;;;;;;4911978;29;20229;-47
2022/03/17 22:50:20;;;;;;;33.93;8.50;;;2.80;1.00;;;;;;4911698;29;20758;-47
2022/03/17 22:52:46;;;;;;;25.20;7.60;;;2.80;12.70;;;;;;4912207;29;20434;-46
2022/03/17 22:55:12;;;;;;;28.50;7.13;;;2.80;99.90;;;;;;4912440;29;20601;-47
2022/03/17 22:57:38;;;;;;;24.73;7.70;;;2.90;99.90;;;;;;4912697;29;20238;-47
2022/03/17 23:00:30;;;;;;;34.00;7.63;;;2.90;99.90;;;;;;4906560;29;21363;-47
2022/03/17 23:02:56;;;;;;;24.80;8.17;;;3.00;99.90;;;;;;4911079;29;20841;-47
2022/03/17 23:05:21;;;;;;;22.80;6.90;;;3.00;99.90;;;;;;4909725;29;20446;-47
2022/03/17 23:07:47;;;;;;;34.40;8.03;;;2.90;99.90;;;;;;4910480;29;20191;-47
2022/03/17 23:10:14;;;;;;;23.63;6.93;;;2.90;99.90;;;;;;4909680;29;20248;-47
2022/03/17 23:12:40;;;;;;;23.03;6.83;;;2.90;99.90;;;;;;4910708;29;20962;-47
2022/03/17 23:15:07;;;;;;;23.67;5.97;;;2.90;99.90;;;;;;4908932;29;20809;-45
2022/03/17 23:17:33;;;;;;;27.97;7.20;;;2.90;99.90;;;;;;4914329;29;20521;-47
2022/03/17 23:20:00;;;;;;;42.93;6.57;;;2.90;99.90;;;;;;4914894;29;20490;-47
2022/03/17 23:22:26;;;;;;;36.63;6.80;;;2.90;99.90;;;;;;4915468;29;20435;-46
2022/03/17 23:24:52;;;;;;;27.97;6.43;;;2.90;99.90;;;;;;4913472;29;20813;-47
2022/03/17 23:27:18;;;;;;;18.00;5.63;;;2.90;99.90;;;;;;4908589;29;20439;-48
2022/03/17 23:29:43;;;;;;;21.50;5.53;;;2.80;99.90;;;;;;4914143;29;20474;-47
2022/03/17 23:32:09;;;;;;;27.43;6.27;;;2.70;99.90;;;;;;4911595;29;20241;-46
2022/03/17 23:34:35;;;;;;;28.17;6.57;;;2.70;99.90;;;;;;4914380;29;20671;-47
2022/03/17 23:37:00;;;;;;;24.60;6.20;;;2.60;99.90;;;;;;4915275;29;20202;-47
2022/03/17 23:39:26;;;;;;;33.87;6.70;;;2.70;99.90;;;;;;4915196;29;20199;-47
2022/03/17 23:41:52;;;;;;;22.10;6.97;;;2.70;99.90;;;;;;4914819;29;20625;-47
2022/03/17 23:44:17;;;;;;;24.57;6.37;;;2.70;99.90;;;;;;4913202;29;20462;-50
2022/03/17 23:46:44;;;;;;;28.33;6.40;;;2.70;99.90;;;;;;4897995;29;20247;-47
2022/03/17 23:49:10;;;;;;;24.23;6.30;;;2.70;99.90;;;;;;4917489;29;20211;-47
2022/03/17 23:51:36;;;;;;;25.60;5.80;;;2.80;99.90;;;;;;4914629;29;20521;-47
2022/03/17 23:54:03;;;;;;;24.80;5.90;;;2.90;99.90;;;;;;4905056;29;20530;-46
2022/03/17 23:56:29;;;;;;;19.53;5.60;;;2.80;99.90;;;;;;4913824;29;20239;-47
2022/03/17 23:58:55;;;;;;;26.40;5.87;;;2.80;99.90;;;;;;4913515;29;21036;-47
